createdAt,value
2019-02-06T00:01:40.177Z,35.13
2019-02-06T00:04:16.346Z,36.07
2019-02-06T00:06:51.614Z,36.00
2019-02-06T00:09:27.556Z,36.53
2019-02-06T00:12:03.414Z,32.90
2019-02-06T00:14:38.389Z,30.60
2019-02-06T00:17:13.578Z,44.80
2019-02-06T00:19:48.809Z,30.03
2019-02-06T00:22:23.649Z,33.47
2019-02-06T00:24:58.637Z,46.40
2019-02-06T00:27:33.513Z,50.70
2019-02-06T00:30:14.612Z,37.93
2019-02-06T00:32:49.538Z,29.90
2019-02-06T00:35:26.137Z,40.67
2019-02-06T00:38:01.422Z,31.37
2019-02-06T00:40:36.562Z,47.33
2019-02-06T00:43:11.710Z,37.03
2019-02-06T00:45:49.854Z,29.93
2019-02-06T00:48:26.609Z,60.03
2019-02-06T00:51:01.526Z,75.90
2019-02-06T00:53:36.377Z,69.77
2019-02-06T00:56:11.678Z,26.50
2019-02-06T00:58:46.625Z,41.90
2019-02-06T01:01:21.979Z,23.90
2019-02-06T01:03:56.835Z,43.83
2019-02-06T01:06:32.117Z,33.77
2019-02-06T01:09:08.429Z,41.83
2019-02-06T01:11:43.315Z,29.20
2019-02-06T01:14:18.602Z,31.43
2019-02-06T01:16:54.498Z,35.03
2019-02-06T01:19:29.351Z,36.50
2019-02-06T01:22:04.278Z,35.27
2019-02-06T01:24:39.541Z,41.00
2019-02-06T01:27:14.957Z,37.20
2019-02-06T01:29:50.778Z,35.40
2019-02-06T01:32:26.081Z,31.43
2019-02-06T01:35:01.224Z,35.07
2019-02-06T01:37:36.167Z,31.67
2019-02-06T01:40:14.291Z,30.87
2019-02-06T01:42:49.830Z,28.73
2019-02-06T01:45:24.681Z,34.60
2019-02-06T01:47:59.625Z,27.50
2019-02-06T01:50:34.557Z,31.67
2019-02-06T01:53:10.410Z,29.17
2019-02-06T01:55:46.728Z,36.20
2019-02-06T01:58:22.480Z,34.43
2019-02-06T02:00:57.707Z,33.53
2019-02-06T02:03:32.626Z,34.83
2019-02-06T02:06:07.877Z,25.37
2019-02-06T02:08:44.496Z,47.33
2019-02-06T02:11:19.439Z,42.20
2019-02-06T02:13:55.465Z,36.80
2019-02-06T02:16:30.386Z,23.43
2019-02-06T02:19:07.945Z,49.13
2019-02-06T02:21:42.785Z,32.60
2019-02-06T02:24:18.198Z,40.87
2019-02-06T02:26:53.152Z,41.80
2019-02-06T02:29:28.357Z,32.37
2019-02-06T02:32:03.766Z,32.90
2019-02-06T02:34:38.622Z,31.77
2019-02-06T02:37:14.431Z,34.97
2019-02-06T02:39:49.674Z,31.07
2019-02-06T02:42:26.503Z,32.03
2019-02-06T02:45:01.812Z,29.03
2019-02-06T02:47:39.721Z,37.03
2019-02-06T02:50:14.598Z,28.70
2019-02-06T02:52:49.540Z,27.93
2019-02-06T02:55:24.742Z,27.50
2019-02-06T02:57:59.950Z,33.57
2019-02-06T03:00:37.144Z,24.53
2019-02-06T03:03:31.388Z,31.50
2019-02-06T03:06:06.594Z,36.40
2019-02-06T03:08:41.497Z,38.20
2019-02-06T03:11:16.354Z,30.10
2019-02-06T03:13:51.292Z,26.80
2019-02-06T03:16:26.238Z,29.77
2019-02-06T03:19:01.075Z,25.60
2019-02-06T03:21:37.289Z,27.70
2019-02-06T03:24:12.115Z,34.23
2019-02-06T03:26:47.240Z,30.43
2019-02-06T03:29:23.025Z,34.70
2019-02-06T03:31:58.243Z,30.60
2019-02-06T03:34:34.631Z,34.83
2019-02-06T03:37:09.859Z,30.30
2019-02-06T03:39:44.780Z,32.60
2019-02-06T03:42:19.713Z,31.67
2019-02-06T03:44:54.562Z,26.03
2019-02-06T03:47:29.483Z,38.07
2019-02-06T03:50:07.153Z,31.37
2019-02-06T03:52:42.351Z,35.97
2019-02-06T03:55:17.217Z,37.00
2019-02-06T03:57:52.523Z,38.23
2019-02-06T04:00:28.455Z,33.80
2019-02-06T04:03:03.395Z,34.67
2019-02-06T04:05:38.353Z,32.90
2019-02-06T04:08:14.476Z,35.73
2019-02-06T04:10:49.418Z,32.03
2019-02-06T04:13:24.549Z,44.20
2019-02-06T04:15:59.523Z,37.13
2019-02-06T04:18:34.426Z,49.57
2019-02-06T04:21:09.374Z,30.33
2019-02-06T04:23:44.214Z,35.40
2019-02-06T04:26:19.156Z,40.47
2019-02-06T04:28:54.272Z,31.73
2019-02-06T04:31:29.151Z,33.53
2019-02-06T04:34:05.045Z,35.57
2019-02-06T04:36:39.983Z,34.67
2019-02-06T04:39:15.295Z,34.93
2019-02-06T04:41:50.202Z,42.73
2019-02-06T04:44:25.385Z,41.93
2019-02-06T04:47:01.192Z,40.67
2019-02-06T04:49:43.536Z,40.87
2019-02-06T04:52:18.404Z,56.30
2019-02-06T04:54:53.243Z,58.40
2019-02-06T04:57:28.540Z,45.27
2019-02-06T05:00:05.490Z,42.77
2019-02-06T05:02:41.276Z,48.37
2019-02-06T05:05:16.139Z,49.17
2019-02-06T05:07:51.349Z,50.00
2019-02-06T05:10:27.227Z,48.53
2019-02-06T05:13:02.077Z,50.70
2019-02-06T05:15:37.018Z,53.60
2019-02-06T05:18:11.946Z,48.03
2019-02-06T05:20:46.812Z,51.27
2019-02-06T05:23:21.733Z,53.13
2019-02-06T05:25:57.145Z,59.43
2019-02-06T05:28:32.349Z,54.40
2019-02-06T05:31:07.265Z,51.67
2019-02-06T05:33:42.131Z,56.40
2019-02-06T05:36:17.453Z,49.07
2019-02-06T05:38:52.407Z,64.67
2019-02-06T05:41:27.397Z,60.50
2019-02-06T05:44:02.488Z,66.97
2019-02-06T05:46:37.420Z,54.43
2019-02-06T05:49:12.278Z,55.90
2019-02-06T05:51:47.219Z,56.20
2019-02-06T05:54:22.468Z,59.47
2019-02-06T05:56:58.658Z,62.40
2019-02-06T05:59:33.504Z,57.50
2019-02-06T06:02:08.445Z,63.37
2019-02-06T06:04:44.503Z,56.27
2019-02-06T06:07:19.713Z,59.30
2019-02-06T06:09:55.172Z,65.77
2019-02-06T06:12:30.088Z,62.23
2019-02-06T06:15:06.785Z,66.47
2019-02-06T06:17:42.930Z,59.67
2019-02-06T06:20:19.421Z,85.57
2019-02-06T06:22:55.327Z,67.93
2019-02-06T06:25:30.271Z,72.97
2019-02-06T06:28:05.134Z,67.03
2019-02-06T06:30:40.071Z,67.93
2019-02-06T06:33:15.009Z,63.87
2019-02-06T06:35:49.956Z,63.57
2019-02-06T06:38:24.911Z,66.03
2019-02-06T06:40:59.851Z,57.23
2019-02-06T06:43:34.775Z,70.87
2019-02-06T06:46:09.630Z,71.20
2019-02-06T06:48:44.469Z,75.33
2019-02-06T06:51:19.610Z,64.40
2019-02-06T06:53:54.784Z,67.43
2019-02-06T06:56:30.002Z,71.00
2019-02-06T06:59:05.150Z,68.23
2019-02-06T07:01:40.382Z,60.70
2019-02-06T07:04:15.509Z,75.23
2019-02-06T07:06:50.639Z,74.47
2019-02-06T07:09:25.503Z,75.40
2019-02-06T07:12:01.350Z,78.23
2019-02-06T07:14:36.287Z,68.33
2019-02-06T07:17:12.219Z,77.63
2019-02-06T07:19:47.815Z,73.93
2019-02-06T07:22:22.744Z,65.07
2019-02-06T07:24:59.354Z,72.27
2019-02-06T07:27:34.286Z,73.67
2019-02-06T07:30:15.197Z,66.73
2019-02-06T07:32:50.051Z,66.90
2019-02-06T07:35:25.150Z,74.00
2019-02-06T07:38:00.404Z,68.00
2019-02-06T07:40:35.330Z,64.50
2019-02-06T07:43:10.172Z,65.70
2019-02-06T07:45:46.289Z,65.97
2019-02-06T07:48:22.370Z,65.07
2019-02-06T07:50:58.298Z,57.97
2019-02-06T07:53:34.078Z,72.30
2019-02-06T07:56:09.022Z,59.87
2019-02-06T07:58:43.869Z,52.10
2019-02-06T08:01:19.844Z,67.47
2019-02-06T08:03:55.275Z,59.03
2019-02-06T08:06:30.492Z,67.43
2019-02-06T08:09:07.757Z,62.27
2019-02-06T08:11:42.762Z,60.70
2019-02-06T08:14:18.585Z,65.00
2019-02-06T08:16:54.721Z,61.57
2019-02-06T08:23:41.203Z,60.90
2019-02-06T08:26:16.069Z,70.43
2019-02-06T08:28:50.997Z,59.53
2019-02-06T08:31:25.875Z,55.87
2019-02-06T08:34:00.814Z,80.30
2019-02-06T08:36:35.752Z,57.40
2019-02-06T08:39:11.600Z,59.53
2019-02-06T08:41:46.937Z,57.63
2019-02-06T08:44:22.140Z,56.90
2019-02-06T08:46:59.182Z,50.17
2019-02-06T08:49:34.127Z,46.73
2019-02-06T08:52:10.341Z,75.50
2019-02-06T08:54:45.238Z,47.03
2019-02-06T08:57:20.627Z,62.07
2019-02-06T08:59:55.508Z,53.27
2019-02-06T09:02:30.427Z,54.97
2019-02-06T09:05:07.819Z,47.87
2019-02-06T09:07:42.746Z,58.57
2019-02-06T09:10:23.029Z,58.63
2019-02-06T09:12:58.511Z,62.17
2019-02-06T09:15:33.838Z,41.27
2019-02-06T09:18:08.723Z,51.87
2019-02-06T09:20:43.597Z,49.40
2019-02-06T09:23:18.521Z,37.43
2019-02-06T09:25:53.458Z,47.70
2019-02-06T09:28:30.077Z,57.03
2019-02-06T09:31:04.955Z,50.90
2019-02-06T09:33:40.734Z,45.33
2019-02-06T09:36:16.510Z,54.37
2019-02-06T09:38:52.783Z,45.77
2019-02-06T09:41:27.726Z,51.13
2019-02-06T09:44:02.809Z,53.10
2019-02-06T09:46:37.752Z,37.87
2019-02-06T09:49:15.058Z,49.30
2019-02-06T09:51:50.138Z,50.83
2019-02-06T09:54:25.158Z,41.13
2019-02-06T09:57:00.346Z,61.57
2019-02-06T09:59:35.214Z,46.53
2019-02-06T10:02:10.165Z,52.73
2019-02-06T10:04:45.129Z,49.60
2019-02-06T10:07:21.193Z,50.03
2019-02-06T10:09:57.981Z,53.13
2019-02-06T10:12:32.679Z,49.03
2019-02-06T10:15:11.141Z,54.97
2019-02-06T10:17:46.011Z,45.93
2019-02-06T10:20:23.798Z,53.80
2019-02-06T10:22:58.998Z,41.67
2019-02-06T10:25:33.862Z,43.70
2019-02-06T10:28:10.331Z,33.47
2019-02-06T10:30:47.624Z,43.73
2019-02-06T10:33:22.546Z,34.63
2019-02-06T10:35:57.902Z,44.50
2019-02-06T10:38:32.747Z,55.67
2019-02-06T10:41:08.001Z,32.83
2019-02-06T10:43:42.938Z,36.03
2019-02-06T10:46:18.464Z,40.17
2019-02-06T10:48:53.856Z,36.90
2019-02-06T10:51:29.960Z,38.30
2019-02-06T10:54:04.868Z,42.90
2019-02-06T10:56:43.059Z,42.67
2019-02-06T10:59:18.401Z,39.90
2019-02-06T11:01:53.947Z,42.60
2019-02-06T11:04:29.386Z,43.03
2019-02-06T11:07:04.245Z,41.80
2019-02-06T11:09:46.165Z,38.63
2019-02-06T11:12:16.047Z,35.63
2019-02-06T11:14:51.490Z,32.70
2019-02-06T11:17:26.781Z,46.30
2019-02-06T11:20:01.949Z,37.53
2019-02-06T11:22:38.798Z,31.03
2019-02-06T11:25:16.491Z,30.47
2019-02-06T11:27:52.328Z,37.00
2019-02-06T11:30:30.534Z,33.40
2019-02-06T11:33:06.359Z,26.97
2019-02-06T11:35:41.583Z,36.80
2019-02-06T11:38:17.502Z,40.83
2019-02-06T11:40:52.781Z,27.20
2019-02-06T11:43:28.071Z,26.97
2019-02-06T11:46:03.282Z,20.07
2019-02-06T11:48:38.716Z,38.60
2019-02-06T11:51:13.955Z,24.77
2019-02-06T11:53:48.879Z,30.00
2019-02-06T11:56:23.859Z,30.73
2019-02-06T11:58:59.060Z,27.40
2019-02-06T12:01:37.165Z,26.83
2019-02-06T12:04:12.337Z,25.97
2019-02-06T12:06:47.534Z,29.40
2019-02-06T12:09:22.389Z,32.00
2019-02-06T12:11:57.647Z,25.03
2019-02-06T12:14:32.551Z,27.73
2019-02-06T12:17:08.632Z,25.17
2019-02-06T12:19:43.567Z,27.53
2019-02-06T12:22:18.485Z,23.33
2019-02-06T12:24:53.334Z,25.23
2019-02-06T12:27:28.182Z,26.73
2019-02-06T12:30:04.806Z,27.57
2019-02-06T12:32:51.511Z,31.00
2019-02-06T12:35:16.602Z,41.33
2019-02-06T12:37:51.439Z,26.97
2019-02-06T12:40:26.369Z,38.03
2019-02-06T12:43:01.519Z,22.97
2019-02-06T12:45:36.785Z,20.50
2019-02-06T12:48:11.722Z,25.23
2019-02-06T12:50:46.822Z,19.63
2019-02-06T12:53:22.716Z,33.57
2019-02-06T12:55:57.634Z,21.60
2019-02-06T12:58:32.488Z,41.67
2019-02-06T13:01:07.407Z,24.77
2019-02-06T13:03:43.163Z,23.60
2019-02-06T13:06:18.100Z,22.97
2019-02-06T13:08:53.017Z,18.17
2019-02-06T13:11:28.225Z,19.53
2019-02-06T13:14:03.753Z,27.07
2019-02-06T13:16:39.026Z,29.50
2019-02-06T13:19:13.899Z,32.07
2019-02-06T13:21:48.828Z,28.40
2019-02-06T13:24:24.023Z,33.13
2019-02-06T13:26:58.892Z,19.70
2019-02-06T13:29:36.041Z,29.77
2019-02-06T13:32:10.875Z,40.27
2019-02-06T13:34:45.810Z,28.27
2019-02-06T13:37:21.063Z,23.07
2019-02-06T13:39:56.285Z,30.67
2019-02-06T13:42:31.136Z,30.47
2019-02-06T13:45:09.364Z,26.93
2019-02-06T13:47:44.277Z,22.83
2019-02-06T13:50:22.273Z,32.17
2019-02-06T13:52:57.421Z,23.97
2019-02-06T13:55:32.343Z,21.33
2019-02-06T13:58:19.191Z,25.33
2019-02-06T14:00:44.137Z,19.63
2019-02-06T14:03:19.093Z,29.20
2019-02-06T14:05:53.950Z,19.50
2019-02-06T14:08:29.254Z,27.83
2019-02-06T14:11:04.098Z,24.20
2019-02-06T14:13:39.378Z,14.07
2019-02-06T14:16:14.461Z,26.87
2019-02-06T14:18:49.290Z,29.60
2019-02-06T14:21:24.255Z,29.73
2019-02-06T14:24:02.351Z,18.77
2019-02-06T14:26:40.502Z,31.40
2019-02-06T14:29:36.930Z,32.57
2019-02-06T14:32:24.778Z,29.37
2019-02-06T14:35:37.036Z,26.47
2019-02-06T14:38:27.670Z,24.37
2019-02-06T14:41:14.853Z,27.23
2019-02-06T14:43:56.154Z,33.17
2019-02-06T14:46:54.190Z,35.80
2019-02-06T14:49:52.054Z,25.40
2019-02-06T14:52:37.060Z,30.60
2019-02-06T14:55:24.333Z,42.23
2019-02-06T14:58:08.439Z,31.43
2019-02-06T15:01:00.058Z,25.10
2019-02-06T15:04:10.159Z,28.23
2019-02-06T15:06:55.422Z,28.63
2019-02-06T15:10:00.912Z,29.77
2019-02-06T15:13:02.958Z,26.67
2019-02-06T15:16:16.678Z,35.37
2019-02-06T15:18:58.975Z,35.90
2019-02-06T15:21:37.089Z,23.03
2019-02-06T15:24:31.340Z,28.83
2019-02-06T15:27:30.355Z,22.60
2019-02-06T15:30:21.505Z,22.23
2019-02-06T15:33:15.895Z,38.23
2019-02-06T15:36:23.632Z,43.57
2019-02-06T15:39:01.808Z,25.83
2019-02-06T15:42:04.482Z,28.40
2019-02-06T15:44:52.288Z,28.20
2019-02-06T15:47:36.525Z,27.43
2019-02-06T15:50:26.705Z,28.07
2019-02-06T15:53:07.078Z,24.13
2019-02-06T15:56:06.556Z,28.63
2019-02-06T15:58:58.002Z,37.60
2019-02-06T16:01:58.297Z,27.93
2019-02-06T16:04:55.888Z,34.33
2019-02-06T16:07:50.156Z,26.47
2019-02-06T16:10:59.306Z,28.93
2019-02-06T16:14:01.506Z,28.90
2019-02-06T16:16:55.847Z,32.47
2019-02-06T16:19:46.263Z,36.13
2019-02-06T16:22:27.653Z,30.97
2019-02-06T16:25:12.220Z,24.27
2019-02-06T16:28:14.694Z,22.87
2019-02-06T16:30:53.106Z,25.93
2019-02-06T16:33:49.048Z,23.87
2019-02-06T16:36:51.495Z,33.83
2019-02-06T16:39:35.946Z,28.87
2019-02-06T16:42:27.218Z,25.97
2019-02-06T16:45:37.564Z,25.63
2019-02-06T16:48:34.465Z,33.57
2019-02-06T16:51:26.377Z,27.83
2019-02-06T16:54:07.658Z,28.57
2019-02-06T16:56:51.997Z,39.23
2019-02-06T16:59:51.202Z,30.37
2019-02-06T17:02:45.961Z,28.00
2019-02-06T17:05:37.368Z,36.37
2019-02-06T17:08:29.229Z,33.47
2019-02-06T17:11:10.366Z,28.93
2019-02-06T17:13:52.021Z,25.23
2019-02-06T17:16:39.844Z,28.00
2019-02-06T17:19:36.969Z,47.47
2019-02-06T17:22:34.460Z,34.27
2019-02-06T17:25:30.995Z,42.10
2019-02-06T17:28:23.133Z,28.63
2019-02-06T17:31:07.682Z,28.40
2019-02-06T17:33:45.882Z,28.07
2019-02-06T17:36:30.225Z,39.00
2019-02-06T17:39:26.144Z,37.30
2019-02-06T17:42:20.541Z,36.70
2019-02-06T17:45:24.082Z,28.33
2019-02-06T17:48:07.674Z,34.70
2019-02-06T17:50:51.994Z,32.80
2019-02-06T17:53:43.179Z,61.87
2019-02-06T17:56:18.462Z,37.63
2019-02-06T17:58:53.306Z,39.77
2019-02-06T18:01:30.658Z,46.23
2019-02-06T18:04:05.971Z,30.03
2019-02-06T18:06:42.020Z,27.00
2019-02-06T18:09:17.421Z,42.93
2019-02-06T18:11:52.391Z,45.50
2019-02-06T18:14:27.698Z,55.00
2019-02-06T18:17:04.991Z,30.67
2019-02-06T18:19:40.385Z,30.77
2019-02-06T18:22:16.177Z,42.67
2019-02-06T18:24:51.148Z,34.23
2019-02-06T18:27:26.078Z,35.93
2019-02-06T18:30:01.153Z,29.53
2019-02-06T18:32:36.411Z,34.53
2019-02-06T18:35:11.611Z,37.27
2019-02-06T18:37:49.309Z,35.63
2019-02-06T18:40:27.459Z,40.50
2019-02-06T18:43:02.390Z,47.67
2019-02-06T18:45:38.277Z,40.63
2019-02-06T18:48:13.721Z,40.33
2019-02-06T18:50:48.681Z,30.57
2019-02-06T18:53:24.312Z,53.93
2019-02-06T18:55:59.276Z,44.47
2019-02-06T18:58:34.237Z,47.37
2019-02-06T19:01:09.500Z,40.83
2019-02-06T19:03:45.704Z,36.23
2019-02-06T19:06:20.852Z,45.17
2019-02-06T19:08:56.338Z,43.93
2019-02-06T19:11:31.449Z,44.27
2019-02-06T19:14:07.437Z,48.67
2019-02-06T19:16:42.971Z,47.57
2019-02-06T19:19:25.088Z,33.00
2019-02-06T19:21:54.795Z,45.93
2019-02-06T19:24:30.094Z,30.60
2019-02-06T19:27:06.959Z,45.40
2019-02-06T19:29:43.404Z,35.90
2019-02-06T19:32:18.467Z,43.80
2019-02-06T19:34:53.472Z,34.30
2019-02-06T19:37:29.813Z,37.27
2019-02-06T19:40:07.975Z,44.70
2019-02-06T19:42:43.047Z,39.83
2019-02-06T19:45:19.035Z,48.97
2019-02-06T19:47:54.003Z,46.77
2019-02-06T19:50:38.532Z,52.73
2019-02-06T19:53:14.703Z,59.10
2019-02-06T19:55:50.068Z,31.43
2019-02-06T19:58:24.999Z,56.50
2019-02-06T20:01:01.206Z,40.43
2019-02-06T20:03:36.928Z,39.93
2019-02-06T20:06:13.782Z,41.57
2019-02-06T20:08:49.102Z,34.90
2019-02-06T20:11:25.200Z,33.40
2019-02-06T20:14:02.241Z,54.90
2019-02-06T20:16:37.219Z,43.30
2019-02-06T20:19:12.392Z,38.37
2019-02-06T20:21:48.115Z,42.43
2019-02-06T20:24:23.391Z,34.43
2019-02-06T20:26:58.352Z,35.37
2019-02-06T20:29:33.304Z,37.63
2019-02-06T20:32:08.354Z,40.50
2019-02-06T20:34:44.759Z,40.47
2019-02-06T20:37:19.988Z,34.47
2019-02-06T20:39:54.917Z,36.73
2019-02-06T20:42:29.877Z,35.40
2019-02-06T20:45:07.023Z,49.20
2019-02-06T20:47:42.295Z,38.17
2019-02-06T20:50:19.860Z,31.90
2019-02-06T20:52:54.852Z,38.23
2019-02-06T20:55:30.343Z,32.37
2019-02-06T20:58:05.630Z,41.17
2019-02-06T21:00:43.273Z,38.87
2019-02-06T21:03:18.515Z,46.27
2019-02-06T21:05:53.863Z,34.87
2019-02-06T21:08:29.202Z,60.93
2019-02-06T21:11:04.431Z,35.97
2019-02-06T21:13:39.870Z,31.80
2019-02-06T21:16:15.709Z,32.23
2019-02-06T21:18:50.643Z,40.77
2019-02-06T21:21:25.583Z,34.13
2019-02-06T21:24:01.918Z,33.40
2019-02-06T21:26:36.877Z,35.30
2019-02-06T21:29:11.831Z,43.33
2019-02-06T21:31:46.858Z,33.60
2019-02-06T21:34:22.150Z,41.47
2019-02-06T21:36:57.560Z,30.73
2019-02-06T21:39:33.394Z,48.73
2019-02-06T21:42:08.551Z,41.70
2019-02-06T21:44:43.601Z,32.30
2019-02-06T21:47:19.276Z,35.17
2019-02-06T21:49:54.506Z,41.03
2019-02-06T21:52:29.458Z,27.87
2019-02-06T21:55:06.994Z,62.80
2019-02-06T21:57:42.280Z,46.07
2019-02-06T22:00:25.504Z,42.63
2019-02-06T22:03:00.876Z,36.03
2019-02-06T22:05:37.923Z,41.13
2019-02-06T22:08:13.081Z,45.77
2019-02-06T22:10:48.212Z,43.20
2019-02-06T22:13:23.154Z,36.80
2019-02-06T22:15:58.381Z,36.50
2019-02-06T22:18:33.736Z,54.80
2019-02-06T22:21:08.670Z,35.27
2019-02-06T22:23:43.622Z,40.93
2019-02-06T22:26:19.230Z,60.33
2019-02-06T22:28:54.443Z,36.97
2019-02-06T22:31:29.609Z,39.17
2019-02-06T22:34:04.891Z,57.17
2019-02-06T22:36:42.054Z,46.27
2019-02-06T22:39:17.803Z,52.37
2019-02-06T22:41:53.051Z,37.00
2019-02-06T22:44:28.186Z,33.60
2019-02-06T22:47:04.841Z,34.67
2019-02-06T22:49:39.709Z,35.30
2019-02-06T22:52:15.311Z,32.47
2019-02-06T22:54:50.579Z,35.87
2019-02-06T22:57:25.806Z,35.63
2019-02-06T23:00:01.982Z,33.40
2019-02-06T23:02:38.423Z,42.67
2019-02-06T23:05:13.366Z,34.97
2019-02-06T23:07:48.302Z,30.87
2019-02-06T23:10:23.236Z,40.40
2019-02-06T23:12:58.482Z,40.73
2019-02-06T23:15:33.321Z,41.10
2019-02-06T23:18:08.260Z,32.03
2019-02-06T23:20:43.437Z,32.23
2019-02-06T23:23:19.349Z,35.20
2019-02-06T23:25:54.192Z,43.17
2019-02-06T23:28:29.129Z,45.20
2019-02-06T23:31:04.069Z,45.43
2019-02-06T23:33:39.013Z,32.93
2019-02-06T23:36:14.218Z,51.87
2019-02-06T23:38:49.338Z,37.37
2019-02-06T23:41:24.591Z,36.23
2019-02-06T23:43:59.822Z,34.00
2019-02-06T23:46:34.758Z,31.80
2019-02-06T23:49:09.775Z,30.40
2019-02-06T23:51:44.659Z,34.23
2019-02-06T23:54:20.525Z,28.87
2019-02-06T23:56:56.089Z,34.33
2019-02-06T23:59:31.262Z,31.37
